Indian Head, Canada
Current Conditions -  °F | °C
As of 3:00 AM on Saturday 22 Nov 2014 (Local Time) from CYQR Reporting Station
Clear Clear  
Wind Chill: 16°   Ceiling: Unl
Heat Index: 25°   Visibility: 15mi
Dew Point: 25°   Wind: 8mph
Humidity: 100%   Direction: 100°E
Pressure: 29.49"   Gusts: NA
Location:  50.53°N, 103.67°W
Report Text: CYQR 220900Z 10007KT 15SM SKC M04/M04 A2949 RMK SLP011
Loading
Personal Weather Stations






























Interactive Weather Map New forecast layout! Learn more

10-Day Weather Forecast

Advertisements
Track Severe Weather on mobile